sensor_id;sensor_type;location;lat;lon;timestamp;temperature;humidity
58519;DHT22;44310;48.106;12.008;2023-04-01T00:01:49;17.30;83.90
58519;DHT22;44310;48.106;12.008;2023-04-01T00:04:16;17.00;84.00
58519;DHT22;44310;48.106;12.008;2023-04-01T00:06:44;17.00;84.60
58519;DHT22;44310;48.106;12.008;2023-04-01T00:09:11;17.00;84.70
58519;DHT22;44310;48.106;12.008;2023-04-01T00:11:38;17.00;84.40
58519;DHT22;44310;48.106;12.008;2023-04-01T00:14:07;17.00;84.80
58519;DHT22;44310;48.106;12.008;2023-04-01T00:16:34;16.10;84.80
58519;DHT22;44310;48.106;12.008;2023-04-01T00:19:02;17.00;85.60
58519;DHT22;44310;48.106;12.008;2023-04-01T00:21:29;17.00;85.50
58519;DHT22;44310;48.106;12.008;2023-04-01T00:23:56;16.90;85.20
58519;DHT22;44310;48.106;12.008;2023-04-01T00:26:24;17.00;85.30
58519;DHT22;44310;48.106;12.008;2023-04-01T00:28:52;16.80;85.50
58519;DHT22;44310;48.106;12.008;2023-04-01T00:31:19;17.70;86.10
58519;DHT22;44310;48.106;12.008;2023-04-01T00:33:47;17.00;85.80
58519;DHT22;44310;48.106;12.008;2023-04-01T00:36:17;16.90;85.50
58519;DHT22;44310;48.106;12.008;2023-04-01T00:38:45;16.80;85.20
58519;DHT22;44310;48.106;12.008;2023-04-01T00:41:14;17.80;85.70
58519;DHT22;44310;48.106;12.008;2023-04-01T00:43:46;16.90;85.20
58519;DHT22;44310;48.106;12.008;2023-04-01T00:46:14;16.40;84.90
58519;DHT22;44310;48.106;12.008;2023-04-01T00:48:53;16.30;84.90
58519;DHT22;44310;48.106;12.008;2023-04-01T00:51:24;16.70;85.10
58519;DHT22;44310;48.106;12.008;2023-04-01T00:53:53;16.90;85.30
58519;DHT22;44310;48.106;12.008;2023-04-01T00:56:25;17.00;85.30
58519;DHT22;44310;48.106;12.008;2023-04-01T00:58:58;16.60;85.30
58519;DHT22;44310;48.106;12.008;2023-04-01T01:01:28;16.70;86.40
58519;DHT22;44310;48.106;12.008;2023-04-01T01:03:55;16.80;86.90
58519;DHT22;44310;48.106;12.008;2023-04-01T01:06:38;16.90;87.20
58519;DHT22;44310;48.106;12.008;2023-04-01T01:09:21;17.10;87.10
58519;DHT22;44310;48.106;12.008;2023-04-01T01:12:05;17.00;87.00
58519;DHT22;44310;48.106;12.008;2023-04-01T01:14:55;16.80;87.00
58519;DHT22;44310;48.106;12.008;2023-04-01T01:37:46;16.60;86.60
58519;DHT22;44310;48.106;12.008;2023-04-01T01:40:15;16.70;87.10
58519;DHT22;44310;48.106;12.008;2023-04-01T01:42:50;16.70;86.80
58519;DHT22;44310;48.106;12.008;2023-04-01T01:45:20;17.20;87.20
58519;DHT22;44310;48.106;12.008;2023-04-01T01:47:49;16.70;86.80
58519;DHT22;44310;48.106;12.008;2023-04-01T01:50:17;17.90;87.20
58519;DHT22;44310;48.106;12.008;2023-04-01T01:52:44;16.70;86.10
58519;DHT22;44310;48.106;12.008;2023-04-01T01:55:32;16.70;85.90
58519;DHT22;44310;48.106;12.008;2023-04-01T01:58:21;16.70;85.70
58519;DHT22;44310;48.106;12.008;2023-04-01T02:00:58;16.70;85.60
58519;DHT22;44310;48.106;12.008;2023-04-01T02:03:28;15.30;85.40
58519;DHT22;44310;48.106;12.008;2023-04-01T02:05:59;16.80;87.70
58519;DHT22;44310;48.106;12.008;2023-04-01T02:08:37;16.90;88.10
58519;DHT22;44310;48.106;12.008;2023-04-01T02:11:09;16.90;88.00
58519;DHT22;44310;48.106;12.008;2023-04-01T02:16:21;16.90;87.70
58519;DHT22;44310;48.106;12.008;2023-04-01T02:18:51;16.70;87.60
58519;DHT22;44310;48.106;12.008;2023-04-01T02:21:22;16.90;87.40
58519;DHT22;44310;48.106;12.008;2023-04-01T02:23:52;16.80;87.50
58519;DHT22;44310;48.106;12.008;2023-04-01T02:26:20;16.90;87.80
58519;DHT22;44310;48.106;12.008;2023-04-01T02:28:48;17.00;88.10
58519;DHT22;44310;48.106;12.008;2023-04-01T02:31:16;16.70;88.00
58519;DHT22;44310;48.106;12.008;2023-04-01T02:33:44;17.00;88.70
58519;DHT22;44310;48.106;12.008;2023-04-01T02:36:13;17.00;89.10
58519;DHT22;44310;48.106;12.008;2023-04-01T02:38:43;17.00;89.30
58519;DHT22;44310;48.106;12.008;2023-04-01T02:41:11;17.10;89.50
58519;DHT22;44310;48.106;12.008;2023-04-01T02:43:38;17.50;89.60
58519;DHT22;44310;48.106;12.008;2023-04-01T02:46:05;16.60;88.50
58519;DHT22;44310;48.106;12.008;2023-04-01T02:48:33;16.10;88.00
58519;DHT22;44310;48.106;12.008;2023-04-01T02:51:00;16.80;88.20
58519;DHT22;44310;48.106;12.008;2023-04-01T02:53:27;16.30;88.00
58519;DHT22;44310;48.106;12.008;2023-04-01T02:55:54;16.80;88.20
58519;DHT22;44310;48.106;12.008;2023-04-01T02:58:22;16.80;88.10
58519;DHT22;44310;48.106;12.008;2023-04-01T03:00:49;16.80;88.10
58519;DHT22;44310;48.106;12.008;2023-04-01T03:03:17;16.80;88.00
58519;DHT22;44310;48.106;12.008;2023-04-01T03:05:44;16.70;88.00
58519;DHT22;44310;48.106;12.008;2023-04-01T03:08:11;16.40;87.80
58519;DHT22;44310;48.106;12.008;2023-04-01T03:10:38;16.20;87.70
58519;DHT22;44310;48.106;12.008;2023-04-01T03:13:06;17.00;88.20
58519;DHT22;44310;48.106;12.008;2023-04-01T03:15:33;16.70;88.10
58519;DHT22;44310;48.106;12.008;2023-04-01T03:18:00;16.80;88.80
58519;DHT22;44310;48.106;12.008;2023-04-01T03:20:27;17.00;89.50
58519;DHT22;44310;48.106;12.008;2023-04-01T03:22:54;16.20;89.00
58519;DHT22;44310;48.106;12.008;2023-04-01T03:25:22;16.90;89.40
58519;DHT22;44310;48.106;12.008;2023-04-01T03:27:49;16.90;89.20
58519;DHT22;44310;48.106;12.008;2023-04-01T03:30:16;16.90;89.00
58519;DHT22;44310;48.106;12.008;2023-04-01T03:32:43;17.00;88.90
58519;DHT22;44310;48.106;12.008;2023-04-01T03:35:10;15.60;88.10
58519;DHT22;44310;48.106;12.008;2023-04-01T03:37:37;16.90;88.50
58519;DHT22;44310;48.106;12.008;2023-04-01T03:40:05;17.10;87.90
58519;DHT22;44310;48.106;12.008;2023-04-01T03:42:32;16.80;87.30
58519;DHT22;44310;48.106;12.008;2023-04-01T03:44:59;17.00;87.20
58519;DHT22;44310;48.106;12.008;2023-04-01T03:47:27;16.60;86.90
58519;DHT22;44310;48.106;12.008;2023-04-01T03:49:54;17.10;87.00
58519;DHT22;44310;48.106;12.008;2023-04-01T03:52:21;16.30;86.60
58519;DHT22;44310;48.106;12.008;2023-04-01T03:54:48;16.60;86.60
58519;DHT22;44310;48.106;12.008;2023-04-01T03:57:15;15.60;86.00
58519;DHT22;44310;48.106;12.008;2023-04-01T03:59:43;16.40;86.20
58519;DHT22;44310;48.106;12.008;2023-04-01T04:02:10;16.80;86.50
58519;DHT22;44310;48.106;12.008;2023-04-01T04:04:37;16.70;88.50
58519;DHT22;44310;48.106;12.008;2023-04-01T04:07:04;16.80;88.30
58519;DHT22;44310;48.106;12.008;2023-04-01T04:09:32;16.80;89.00
58519;DHT22;44310;48.106;12.008;2023-04-01T04:12:00;16.90;88.20
58519;DHT22;44310;48.106;12.008;2023-04-01T04:14:28;17.00;87.60
58519;DHT22;44310;48.106;12.008;2023-04-01T04:16:55;16.90;87.40
58519;DHT22;44310;48.106;12.008;2023-04-01T04:19:22;17.00;87.50
58519;DHT22;44310;48.106;12.008;2023-04-01T04:21:49;16.60;87.10
58519;DHT22;44310;48.106;12.008;2023-04-01T04:24:16;16.80;87.30
58519;DHT22;44310;48.106;12.008;2023-04-01T04:26:43;16.70;87.10
58519;DHT22;44310;48.106;12.008;2023-04-01T04:29:10;16.70;88.30
58519;DHT22;44310;48.106;12.008;2023-04-01T04:31:37;16.90;89.70
58519;DHT22;44310;48.106;12.008;2023-04-01T04:34:04;16.90;90.00
58519;DHT22;44310;48.106;12.008;2023-04-01T04:36:32;17.00;90.20
58519;DHT22;44310;48.106;12.008;2023-04-01T04:38:59;17.00;90.20
58519;DHT22;44310;48.106;12.008;2023-04-01T04:41:28;17.00;90.20
58519;DHT22;44310;48.106;12.008;2023-04-01T04:43:56;17.10;89.70
58519;DHT22;44310;48.106;12.008;2023-04-01T04:46:24;17.00;89.30
58519;DHT22;44310;48.106;12.008;2023-04-01T04:48:51;17.00;89.30
58519;DHT22;44310;48.106;12.008;2023-04-01T04:51:19;17.10;89.20
58519;DHT22;44310;48.106;12.008;2023-04-01T04:53:46;16.90;88.80
58519;DHT22;44310;48.106;12.008;2023-04-01T04:56:19;17.50;88.90
58519;DHT22;44310;48.106;12.008;2023-04-01T04:58:47;16.70;88.40
58519;DHT22;44310;48.106;12.008;2023-04-01T05:01:16;16.70;88.30
58519;DHT22;44310;48.106;12.008;2023-04-01T05:03:43;16.60;88.40
58519;DHT22;44310;48.106;12.008;2023-04-01T05:06:13;17.20;88.60
58519;DHT22;44310;48.106;12.008;2023-04-01T05:08:42;16.80;88.50
58519;DHT22;44310;48.106;12.008;2023-04-01T05:11:12;17.20;88.70
58519;DHT22;44310;48.106;12.008;2023-04-01T05:13:41;16.70;88.20
58519;DHT22;44310;48.106;12.008;2023-04-01T05:16:10;17.00;88.20
58519;DHT22;44310;48.106;12.008;2023-04-01T05:18:37;17.00;88.20
58519;DHT22;44310;48.106;12.008;2023-04-01T05:21:06;17.00;88.80
58519;DHT22;44310;48.106;12.008;2023-04-01T05:23:34;16.80;89.60
58519;DHT22;44310;48.106;12.008;2023-04-01T05:26:10;16.60;89.40
58519;DHT22;44310;48.106;12.008;2023-04-01T05:28:38;16.10;88.80
58519;DHT22;44310;48.106;12.008;2023-04-01T05:31:06;16.90;89.60
58519;DHT22;44310;48.106;12.008;2023-04-01T05:33:34;16.30;88.50
58519;DHT22;44310;48.106;12.008;2023-04-01T05:36:13;17.10;88.80
58519;DHT22;44310;48.106;12.008;2023-04-01T05:38:40;16.90;88.50
58519;DHT22;44310;48.106;12.008;2023-04-01T05:41:09;16.90;88.30
58519;DHT22;44310;48.106;12.008;2023-04-01T05:43:37;17.00;88.30
58519;DHT22;44310;48.106;12.008;2023-04-01T05:46:04;17.70;88.60
58519;DHT22;44310;48.106;12.008;2023-04-01T05:48:33;16.90;88.00
58519;DHT22;44310;48.106;12.008;2023-04-01T05:51:02;17.10;87.80
58519;DHT22;44310;48.106;12.008;2023-04-01T05:53:29;16.90;87.60
58519;DHT22;44310;48.106;12.008;2023-04-01T05:55:57;16.90;87.50
58519;DHT22;44310;48.106;12.008;2023-04-01T05:58:24;16.80;87.20
58519;DHT22;44310;48.106;12.008;2023-04-01T06:00:51;17.00;87.40
58519;DHT22;44310;48.106;12.008;2023-04-01T06:03:35;17.00;87.40
58519;DHT22;44310;48.106;12.008;2023-04-01T06:06:03;16.70;87.20
58519;DHT22;44310;48.106;12.008;2023-04-01T06:08:31;16.90;86.90
58519;DHT22;44310;48.106;12.008;2023-04-01T06:30:43;16.80;86.50
58519;DHT22;44310;48.106;12.008;2023-04-01T06:33:38;16.90;86.50
58519;DHT22;44310;48.106;12.008;2023-04-01T06:48:30;16.90;85.40
58519;DHT22;44310;48.106;12.008;2023-04-01T06:51:08;16.90;85.20
58519;DHT22;44310;48.106;12.008;2023-04-01T06:54:07;16.90;85.30
58519;DHT22;44310;48.106;12.008;2023-04-01T06:56:37;17.00;85.30
58519;DHT22;44310;48.106;12.008;2023-04-01T06:59:14;16.80;85.10
58519;DHT22;44310;48.106;12.008;2023-04-01T07:01:52;16.80;84.90
58519;DHT22;44310;48.106;12.008;2023-04-01T07:04:25;16.80;84.70
58519;DHT22;44310;48.106;12.008;2023-04-01T07:07:34;16.90;84.70
58519;DHT22;44310;48.106;12.008;2023-04-01T07:13:04;16.90;84.40
58519;DHT22;44310;48.106;12.008;2023-04-01T07:15:42;16.90;84.20
58519;DHT22;44310;48.106;12.008;2023-04-01T07:18:28;16.90;84.10
58519;DHT22;44310;48.106;12.008;2023-04-01T07:20:55;16.80;84.00
58519;DHT22;44310;48.106;12.008;2023-04-01T07:23:25;16.90;84.10
58519;DHT22;44310;48.106;12.008;2023-04-01T07:26:00;16.90;84.00
58519;DHT22;44310;48.106;12.008;2023-04-01T07:28:32;16.90;83.90
58519;DHT22;44310;48.106;12.008;2023-04-01T07:34:11;16.90;83.70
58519;DHT22;44310;48.106;12.008;2023-04-01T07:39:51;17.00;84.10
58519;DHT22;44310;48.106;12.008;2023-04-01T07:42:53;16.80;82.50
58519;DHT22;44310;48.106;12.008;2023-04-01T07:48:19;16.40;81.00
58519;DHT22;44310;48.106;12.008;2023-04-01T07:51:02;16.40;80.90
58519;DHT22;44310;48.106;12.008;2023-04-01T07:56:15;16.60;81.60
58519;DHT22;44310;48.106;12.008;2023-04-01T08:01:23;16.70;82.40
58519;DHT22;44310;48.106;12.008;2023-04-01T08:04:14;16.70;82.60
58519;DHT22;44310;48.106;12.008;2023-04-01T08:12:04;16.80;82.90
58519;DHT22;44310;48.106;12.008;2023-04-01T08:17:40;16.90;83.40
58519;DHT22;44310;48.106;12.008;2023-04-01T08:20:46;16.90;83.40
58519;DHT22;44310;48.106;12.008;2023-04-01T08:23:21;16.90;83.60
58519;DHT22;44310;48.106;12.008;2023-04-01T08:28:44;16.20;83.10
58519;DHT22;44310;48.106;12.008;2023-04-01T08:31:36;16.90;83.60
58519;DHT22;44310;48.106;12.008;2023-04-01T08:34:09;17.00;83.60
58519;DHT22;44310;48.106;12.008;2023-04-01T08:36:42;17.00;83.50
58519;DHT22;44310;48.106;12.008;2023-04-01T08:39:16;17.00;83.50
58519;DHT22;44310;48.106;12.008;2023-04-01T08:41:59;16.90;83.50
58519;DHT22;44310;48.106;12.008;2023-04-01T08:45:06;16.90;83.30
58519;DHT22;44310;48.106;12.008;2023-04-01T08:59:13;16.90;83.10
58519;DHT22;44310;48.106;12.008;2023-04-01T09:05:18;16.90;83.30
58519;DHT22;44310;48.106;12.008;2023-04-01T09:07:52;16.90;83.30
58519;DHT22;44310;48.106;12.008;2023-04-01T09:10:43;16.90;83.10
58519;DHT22;44310;48.106;12.008;2023-04-01T09:19:27;17.30;83.40
58519;DHT22;44310;48.106;12.008;2023-04-01T09:22:09;17.00;83.10
58519;DHT22;44310;48.106;12.008;2023-04-01T09:25:02;17.00;82.90
58519;DHT22;44310;48.106;12.008;2023-04-01T09:27:44;17.10;82.90
58519;DHT22;44310;48.106;12.008;2023-04-01T09:33:10;17.40;83.10
58519;DHT22;44310;48.106;12.008;2023-04-01T09:38:30;17.00;81.80
58519;DHT22;44310;48.106;12.008;2023-04-01T09:41:14;17.10;81.70
58519;DHT22;44310;48.106;12.008;2023-04-01T09:44:02;17.10;82.10
58519;DHT22;44310;48.106;12.008;2023-04-01T09:49:29;17.20;81.80
58519;DHT22;44310;48.106;12.008;2023-04-01T09:52:57;17.30;81.80
58519;DHT22;44310;48.106;12.008;2023-04-01T09:55:38;17.20;81.70
58519;DHT22;44310;48.106;12.008;2023-04-01T10:06:57;17.20;81.30
58519;DHT22;44310;48.106;12.008;2023-04-01T10:10:14;17.20;81.20
58519;DHT22;44310;48.106;12.008;2023-04-01T10:12:55;17.20;82.30
58519;DHT22;44310;48.106;12.008;2023-04-01T10:23:52;17.20;84.00
58519;DHT22;44310;48.106;12.008;2023-04-01T10:35:39;17.20;85.60
58519;DHT22;44310;48.106;12.008;2023-04-01T10:43:58;17.20;86.30
58519;DHT22;44310;48.106;12.008;2023-04-01T11:10:00;16.20;76.70
58519;DHT22;44310;48.106;12.008;2023-04-01T11:46:12;16.30;76.10
58519;DHT22;44310;48.106;12.008;2023-04-01T11:52:00;16.30;74.40
58519;DHT22;44310;48.106;12.008;2023-04-01T11:55:14;16.30;75.60
58519;DHT22;44310;48.106;12.008;2023-04-01T11:58:06;16.30;76.90
58519;DHT22;44310;48.106;12.008;2023-04-01T12:03:36;16.30;78.00
58519;DHT22;44310;48.106;12.008;2023-04-01T12:06:40;16.30;78.70
58519;DHT22;44310;48.106;12.008;2023-04-01T12:09:35;15.70;77.70
58519;DHT22;44310;48.106;12.008;2023-04-01T12:21:03;15.80;73.00
58519;DHT22;44310;48.106;12.008;2023-04-01T12:26:19;15.20;76.50
58519;DHT22;44310;48.106;12.008;2023-04-01T12:29:48;15.30;78.70
58519;DHT22;44310;48.106;12.008;2023-04-01T12:32:27;15.70;79.70
58519;DHT22;44310;48.106;12.008;2023-04-01T12:37:50;16.10;80.50
58519;DHT22;44310;48.106;12.008;2023-04-01T12:43:04;16.30;81.00
58519;DHT22;44310;48.106;12.008;2023-04-01T12:45:39;16.00;81.00
58519;DHT22;44310;48.106;12.008;2023-04-01T12:51:50;16.70;82.20
58519;DHT22;44310;48.106;12.008;2023-04-01T12:57:23;16.80;82.50
58519;DHT22;44310;48.106;12.008;2023-04-01T13:00:44;16.90;82.70
58519;DHT22;44310;48.106;12.008;2023-04-01T13:11:18;16.90;83.30
58519;DHT22;44310;48.106;12.008;2023-04-01T13:22:46;17.00;83.70
58519;DHT22;44310;48.106;12.008;2023-04-01T13:25:36;16.90;83.70
58519;DHT22;44310;48.106;12.008;2023-04-01T13:28:20;17.00;83.70
58519;DHT22;44310;48.106;12.008;2023-04-01T13:39:24;16.90;83.50
58519;DHT22;44310;48.106;12.008;2023-04-01T13:42:23;16.90;83.60
58519;DHT22;44310;48.106;12.008;2023-04-01T13:45:16;17.00;83.60
58519;DHT22;44310;48.106;12.008;2023-04-01T13:50:37;17.20;83.90
58519;DHT22;44310;48.106;12.008;2023-04-01T13:56:15;17.10;83.70
58519;DHT22;44310;48.106;12.008;2023-04-01T13:59:07;17.40;84.10
58519;DHT22;44310;48.106;12.008;2023-04-01T14:01:59;17.20;83.90
58519;DHT22;44310;48.106;12.008;2023-04-01T14:04:52;16.80;83.70
58519;DHT22;44310;48.106;12.008;2023-04-01T14:07:41;16.90;83.80
58519;DHT22;44310;48.106;12.008;2023-04-01T14:13:13;17.20;83.80
58519;DHT22;44310;48.106;12.008;2023-04-01T14:15:52;16.90;83.50
58519;DHT22;44310;48.106;12.008;2023-04-01T14:21:17;17.00;83.50
58519;DHT22;44310;48.106;12.008;2023-04-01T14:40:45;16.90;83.80
58519;DHT22;44310;48.106;12.008;2023-04-01T14:43:32;17.30;84.20
58519;DHT22;44310;48.106;12.008;2023-04-01T14:49:02;17.90;84.50
58519;DHT22;44310;48.106;12.008;2023-04-01T14:51:32;16.90;84.00
58519;DHT22;44310;48.106;12.008;2023-04-01T14:54:14;17.00;84.10
58519;DHT22;44310;48.106;12.008;2023-04-01T14:56:51;16.80;83.80
58519;DHT22;44310;48.106;12.008;2023-04-01T14:59:29;17.50;84.40
58519;DHT22;44310;48.106;12.008;2023-04-01T15:05:32;17.10;84.60
58519;DHT22;44310;48.106;12.008;2023-04-01T15:08:23;17.10;84.70
58519;DHT22;44310;48.106;12.008;2023-04-01T15:13:54;17.20;85.50
58519;DHT22;44310;48.106;12.008;2023-04-01T15:19:53;15.90;84.70
58519;DHT22;44310;48.106;12.008;2023-04-01T15:22:57;17.00;85.40
58519;DHT22;44310;48.106;12.008;2023-04-01T15:25:42;17.10;85.50
58519;DHT22;44310;48.106;12.008;2023-04-01T15:31:19;17.30;85.90
58519;DHT22;44310;48.106;12.008;2023-04-01T15:36:44;17.30;86.20
58519;DHT22;44310;48.106;12.008;2023-04-01T15:39:29;17.20;86.30
58519;DHT22;44310;48.106;12.008;2023-04-01T15:45:13;17.20;86.50
58519;DHT22;44310;48.106;12.008;2023-04-01T15:47:56;17.40;86.90
58519;DHT22;44310;48.106;12.008;2023-04-01T15:50:41;17.40;87.00
58519;DHT22;44310;48.106;12.008;2023-04-01T16:11:08;17.20;87.10
58519;DHT22;44310;48.106;12.008;2023-04-01T16:14:07;17.40;87.30
58519;DHT22;44310;48.106;12.008;2023-04-01T16:17:16;17.40;87.30
58519;DHT22;44310;48.106;12.008;2023-04-01T16:19:59;17.30;87.30
58519;DHT22;44310;48.106;12.008;2023-04-01T16:22:35;17.00;87.20
58519;DHT22;44310;48.106;12.008;2023-04-01T16:33:46;17.20;87.30
58519;DHT22;44310;48.106;12.008;2023-04-01T16:36:26;17.20;87.30
58519;DHT22;44310;48.106;12.008;2023-04-01T16:45:06;17.30;87.50
58519;DHT22;44310;48.106;12.008;2023-04-01T16:50:48;17.20;87.60
58519;DHT22;44310;48.106;12.008;2023-04-01T16:53:25;16.30;87.50
58519;DHT22;44310;48.106;12.008;2023-04-01T16:56:07;17.40;88.00
58519;DHT22;44310;48.106;12.008;2023-04-01T16:58:39;17.20;88.00
58519;DHT22;44310;48.106;12.008;2023-04-01T17:01:23;17.20;87.60
58519;DHT22;44310;48.106;12.008;2023-04-01T17:04:04;17.30;87.70
58519;DHT22;44310;48.106;12.008;2023-04-01T17:06:49;16.20;86.20
58519;DHT22;44310;48.106;12.008;2023-04-01T17:09:45;17.20;86.70
58519;DHT22;44310;48.106;12.008;2023-04-01T17:12:26;17.10;87.00
58519;DHT22;44310;48.106;12.008;2023-04-01T17:15:20;17.20;87.40
58519;DHT22;44310;48.106;12.008;2023-04-01T17:18:01;17.10;87.60
58519;DHT22;44310;48.106;12.008;2023-04-01T17:20:48;17.10;87.90
58519;DHT22;44310;48.106;12.008;2023-04-01T17:23:23;17.20;88.20
58519;DHT22;44310;48.106;12.008;2023-04-01T17:29:18;17.40;88.60
58519;DHT22;44310;48.106;12.008;2023-04-01T17:37:57;17.20;88.40
58519;DHT22;44310;48.106;12.008;2023-04-01T17:44:12;17.10;88.30
58519;DHT22;44310;48.106;12.008;2023-04-01T17:49:38;17.20;88.30
58519;DHT22;44310;48.106;12.008;2023-04-01T17:52:20;17.10;88.30
58519;DHT22;44310;48.106;12.008;2023-04-01T18:03:04;17.10;88.10
58519;DHT22;44310;48.106;12.008;2023-04-01T18:08:30;17.00;87.80
58519;DHT22;44310;48.106;12.008;2023-04-01T18:11:18;17.00;87.70
58519;DHT22;44310;48.106;12.008;2023-04-01T18:19:45;17.00;87.50
58519;DHT22;44310;48.106;12.008;2023-04-01T18:22:45;16.90;87.50
58519;DHT22;44310;48.106;12.008;2023-04-01T18:28:24;17.00;87.00
58519;DHT22;44310;48.106;12.008;2023-04-01T18:33:43;17.00;86.50
58519;DHT22;44310;48.106;12.008;2023-04-01T18:36:55;17.00;86.40
58519;DHT22;44310;48.106;12.008;2023-04-01T18:39:46;17.00;86.20
58519;DHT22;44310;48.106;12.008;2023-04-01T18:45:10;16.50;85.60
58519;DHT22;44310;48.106;12.008;2023-04-01T18:47:48;17.00;85.70
58519;DHT22;44310;48.106;12.008;2023-04-01T18:50:41;17.10;85.70
58519;DHT22;44310;48.106;12.008;2023-04-01T18:53:25;16.90;85.40
58519;DHT22;44310;48.106;12.008;2023-04-01T18:55:59;17.00;85.30
58519;DHT22;44310;48.106;12.008;2023-04-01T18:58:36;17.00;85.30
58519;DHT22;44310;48.106;12.008;2023-04-01T19:01:19;17.00;85.90
58519;DHT22;44310;48.106;12.008;2023-04-01T19:04:23;17.10;85.60
58519;DHT22;44310;48.106;12.008;2023-04-01T19:06:56;17.20;86.70
58519;DHT22;44310;48.106;12.008;2023-04-01T19:09:26;17.00;85.90
58519;DHT22;44310;48.106;12.008;2023-04-01T19:13:03;17.00;85.90
58519;DHT22;44310;48.106;12.008;2023-04-01T19:32:08;17.00;86.90
58519;DHT22;44310;48.106;12.008;2023-04-01T19:37:50;17.10;87.00
58519;DHT22;44310;48.106;12.008;2023-04-01T19:43:33;17.00;87.00
58519;DHT22;44310;48.106;12.008;2023-04-01T19:46:19;17.10;87.00
58519;DHT22;44310;48.106;12.008;2023-04-01T19:49:19;17.20;87.00
58519;DHT22;44310;48.106;12.008;2023-04-01T19:52:04;17.10;86.90
58519;DHT22;44310;48.106;12.008;2023-04-01T19:57:54;17.00;86.80
58519;DHT22;44310;48.106;12.008;2023-04-01T20:00:36;17.10;86.70
58519;DHT22;44310;48.106;12.008;2023-04-01T20:05:47;17.00;86.50
58519;DHT22;44310;48.106;12.008;2023-04-01T20:08:17;17.10;86.50
58519;DHT22;44310;48.106;12.008;2023-04-01T20:11:11;17.00;86.30
58519;DHT22;44310;48.106;12.008;2023-04-01T20:17:07;17.00;86.00
58519;DHT22;44310;48.106;12.008;2023-04-01T20:19:40;17.10;85.90
58519;DHT22;44310;48.106;12.008;2023-04-01T20:22:23;16.40;85.40
58519;DHT22;44310;48.106;12.008;2023-04-01T20:24:52;17.10;86.00
58519;DHT22;44310;48.106;12.008;2023-04-01T20:27:31;16.90;85.90
58519;DHT22;44310;48.106;12.008;2023-04-01T20:33:31;16.90;85.90
58519;DHT22;44310;48.106;12.008;2023-04-01T20:36:06;16.90;86.00
58519;DHT22;44310;48.106;12.008;2023-04-01T20:38:59;17.10;86.20
58519;DHT22;44310;48.106;12.008;2023-04-01T20:41:40;17.00;86.00
58519;DHT22;44310;48.106;12.008;2023-04-01T20:50:24;17.00;86.00
58519;DHT22;44310;48.106;12.008;2023-04-01T20:53:18;17.20;86.10
58519;DHT22;44310;48.106;12.008;2023-04-01T20:58:24;17.20;86.30
58519;DHT22;44310;48.106;12.008;2023-04-01T21:04:07;17.10;86.50
58519;DHT22;44310;48.106;12.008;2023-04-01T21:20:32;17.40;86.70
58519;DHT22;44310;48.106;12.008;2023-04-01T21:23:12;17.00;86.30
58519;DHT22;44310;48.106;12.008;2023-04-01T21:34:56;17.00;85.90
58519;DHT22;44310;48.106;12.008;2023-04-01T21:43:00;17.40;85.80
58519;DHT22;44310;48.106;12.008;2023-04-01T21:45:56;17.00;85.50
58519;DHT22;44310;48.106;12.008;2023-04-01T21:48:52;17.70;85.80
58519;DHT22;44310;48.106;12.008;2023-04-01T22:00:14;17.20;85.40
58519;DHT22;44310;48.106;12.008;2023-04-01T22:03:00;17.00;85.30
58519;DHT22;44310;48.106;12.008;2023-04-01T22:05:41;17.20;85.40
58519;DHT22;44310;48.106;12.008;2023-04-01T22:11:18;17.20;85.50
58519;DHT22;44310;48.106;12.008;2023-04-01T22:14:11;17.00;85.40
58519;DHT22;44310;48.106;12.008;2023-04-01T22:16:47;17.60;85.90
58519;DHT22;44310;48.106;12.008;2023-04-01T22:22:28;17.00;85.50
58519;DHT22;44310;48.106;12.008;2023-04-01T22:25:34;17.10;85.60
58519;DHT22;44310;48.106;12.008;2023-04-01T22:28:09;17.00;85.50
58519;DHT22;44310;48.106;12.008;2023-04-01T22:30:48;17.10;85.50
58519;DHT22;44310;48.106;12.008;2023-04-01T22:33:30;17.40;85.80
58519;DHT22;44310;48.106;12.008;2023-04-01T22:36:06;17.00;85.40
58519;DHT22;44310;48.106;12.008;2023-04-01T22:38:49;17.00;85.50
58519;DHT22;44310;48.106;12.008;2023-04-01T22:47:10;17.00;85.50
58519;DHT22;44310;48.106;12.008;2023-04-01T22:49:53;16.80;85.40
58519;DHT22;44310;48.106;12.008;2023-04-01T22:52:31;17.20;85.70
58519;DHT22;44310;48.106;12.008;2023-04-01T22:55:04;17.20;85.70
58519;DHT22;44310;48.106;12.008;2023-04-01T23:03:22;17.00;85.60
58519;DHT22;44310;48.106;12.008;2023-04-01T23:05:57;17.00;85.50
58519;DHT22;44310;48.106;12.008;2023-04-01T23:11:33;17.10;85.60
58519;DHT22;44310;48.106;12.008;2023-04-01T23:16:57;17.10;85.40
58519;DHT22;44310;48.106;12.008;2023-04-01T23:25:25;17.20;85.40
58519;DHT22;44310;48.106;12.008;2023-04-01T23:38:22;15.60;84.80
58519;DHT22;44310;48.106;12.008;2023-04-01T23:40:52;17.20;85.70
58519;DHT22;44310;48.106;12.008;2023-04-01T23:43:34;17.10;85.60
58519;DHT22;44310;48.106;12.008;2023-04-01T23:46:05;17.10;85.70
58519;DHT22;44310;48.106;12.008;2023-04-01T23:48:41;17.00;85.90
58519;DHT22;44310;48.106;12.008;2023-04-01T23:51:25;17.10;86.00
58519;DHT22;44310;48.106;12.008;2023-04-01T23:54:03;17.10;86.00
58519;DHT22;44310;48.106;12.008;2023-04-01T23:56:46;17.20;85.90
58519;DHT22;44310;48.106;12.008;2023-04-01T23:59:35;17.10;85.80
